Time;durP1;ratioP1;P1;durP2;ratioP2;P2;SDS_P1;SDS_P2;PMS_P1;PMS_P2;Temp;Humidity;BMP_temperature;BMP_pressure;BME280_temperature;BME280_humidity;BME280_pressure;Samples;Min_cycle;Max_cycle;Signal;HPM_P1;HPM_P2
2023/06/27 00:01:39;;;;;;;5.57;3.40;;;17.50;99.90;;;;;;5057094;28;20198;-61
2023/06/27 00:04:09;;;;;;;2.93;2.43;;;17.50;99.90;;;;;;5054421;28;20202;-61
2023/06/27 00:06:40;;;;;;;3.83;2.33;;;17.40;99.90;;;;;;5057134;28;20210;-61
2023/06/27 00:09:10;;;;;;;6.37;2.63;;;17.30;99.90;;;;;;5056935;28;20225;-61
2023/06/27 00:11:40;;;;;;;4.40;2.27;;;17.30;99.90;;;;;;5056580;28;20205;-61
2023/06/27 00:14:08;;;;;;;1.67;1.57;;;17.20;99.90;;;;;;5057010;28;20353;-61
2023/06/27 00:16:35;;;;;;;3.77;2.40;;;17.00;99.90;;;;;;5057299;28;20622;-62
2023/06/27 00:19:04;;;;;;;5.83;2.27;;;17.00;99.90;;;;;;5056735;28;20229;-61
2023/06/27 00:21:31;;;;;;;5.37;2.37;;;17.10;99.90;;;;;;5054743;28;20252;-62
2023/06/27 00:23:58;;;;;;;5.77;2.40;;;17.00;99.90;;;;;;5056087;28;20235;-61
2023/06/27 00:26:23;;;;;;;4.00;1.90;;;17.10;99.90;;;;;;5056994;28;20206;-61
2023/06/27 00:28:48;;;;;;;4.93;1.60;;;17.10;99.90;;;;;;5056995;28;20272;-62
2023/06/27 00:31:14;;;;;;;2.73;2.10;;;17.00;99.90;;;;;;5056909;28;20215;-61
2023/06/27 00:33:40;;;;;;;2.07;1.83;;;17.10;99.90;;;;;;5057057;28;20214;-61
2023/06/27 00:36:09;;;;;;;6.93;2.30;;;17.00;99.90;;;;;;5054858;28;20199;-62
2023/06/27 00:38:35;;;;;;;3.93;1.90;;;17.00;99.90;;;;;;5056841;28;20542;-61
2023/06/27 00:41:01;;;;;;;3.30;2.10;;;17.00;99.90;;;;;;5056122;28;20216;-61
2023/06/27 00:43:29;;;;;;;2.90;2.40;;;16.90;99.90;;;;;;5056851;28;20232;-61
2023/06/27 00:45:56;;;;;;;4.87;2.47;;;16.90;99.90;;;;;;5055773;28;20285;-61
2023/06/27 00:48:21;;;;;;;3.47;2.13;;;16.80;99.90;;;;;;5044773;28;20318;-61
2023/06/27 00:50:48;;;;;;;6.20;2.10;;;16.80;99.90;;;;;;5049067;28;20695;-62
2023/06/27 00:53:14;;;;;;;4.67;2.37;;;16.80;99.90;;;;;;5051120;28;20213;-61
2023/06/27 00:55:41;;;;;;;2.37;1.90;;;16.80;99.90;;;;;;5051075;28;20221;-61
2023/06/27 00:58:08;;;;;;;3.13;2.83;;;16.70;99.90;;;;;;5046942;28;20210;-61
2023/06/27 01:00:34;;;;;;;5.50;2.30;;;16.60;99.90;;;;;;5050212;28;20281;-62
2023/06/27 01:02:59;;;;;;;5.90;2.23;;;16.60;99.90;;;;;;5050102;28;20302;-62
2023/06/27 01:05:25;;;;;;;4.90;2.33;;;16.60;99.90;;;;;;5050486;28;20252;-62
2023/06/27 01:07:58;;;;;;;5.33;2.30;;;16.50;99.90;;;;;;5049956;28;20286;-62
2023/06/27 01:10:35;;;;;;;4.63;2.63;;;16.50;99.90;;;;;;5046780;28;20282;-62
2023/06/27 01:13:08;;;;;;;8.03;2.90;;;16.50;99.90;;;;;;5050432;28;20716;-62
2023/06/27 01:15:35;;;;;;;5.40;2.73;;;16.40;99.90;;;;;;5049885;28;20205;-62
2023/06/27 01:18:01;;;;;;;4.67;2.33;;;16.40;99.90;;;;;;5049810;28;20217;-62
2023/06/27 01:20:27;;;;;;;4.20;2.10;;;16.40;99.90;;;;;;5050879;28;20571;-62
2023/06/27 01:23:22;;;;;;;5.40;2.40;;;16.40;99.90;;;;;;5046407;28;20256;-62
2023/06/27 01:25:50;;;;;;;8.50;3.07;;;16.30;99.90;;;;;;5051632;28;20202;-62
2023/06/27 01:28:17;;;;;;;7.03;2.70;;;16.40;99.90;;;;;;5048091;28;20225;-62
2023/06/27 01:30:42;;;;;;;8.43;2.60;;;16.40;99.90;;;;;;5049216;28;20201;-62
2023/06/27 01:33:23;;;;;;;6.27;2.80;;;16.30;99.90;;;;;;5049726;28;20194;-62
2023/06/27 01:35:56;;;;;;;7.90;2.83;;;16.20;99.90;;;;;;5047806;28;20203;-63
2023/06/27 01:38:29;;;;;;;6.83;2.60;;;16.10;99.90;;;;;;5050253;28;20248;-63
2023/06/27 01:40:57;;;;;;;8.23;3.67;;;16.10;99.90;;;;;;5050301;28;20230;-62
2023/06/27 01:43:23;;;;;;;7.53;2.90;;;16.10;99.90;;;;;;5048339;28;20236;-62
2023/06/27 01:45:49;;;;;;;7.67;3.07;;;16.10;99.90;;;;;;5050097;28;20233;-62
2023/06/27 01:48:16;;;;;;;6.30;2.70;;;16.10;99.90;;;;;;5048434;28;20208;-62
2023/06/27 01:50:41;;;;;;;5.70;2.67;;;16.10;99.90;;;;;;5049694;28;20681;-61
2023/06/27 01:53:07;;;;;;;4.83;2.50;;;16.10;99.90;;;;;;5049473;28;20199;-61
2023/06/27 01:55:32;;;;;;;5.70;2.83;;;16.10;99.90;;;;;;5048991;28;20609;-61
2023/06/27 01:57:58;;;;;;;7.67;2.80;;;16.10;99.90;;;;;;5049056;28;20195;-62
2023/06/27 02:00:24;;;;;;;6.33;3.10;;;16.10;99.90;;;;;;5052878;28;20206;-61
2023/06/27 02:02:50;;;;;;;7.57;3.43;;;16.10;99.90;;;;;;5051696;28;20206;-61
2023/06/27 02:05:15;;;;;;;8.47;2.67;;;16.10;99.90;;;;;;5047627;28;20224;-61
2023/06/27 02:07:41;;;;;;;5.17;3.17;;;16.10;99.90;;;;;;5049836;28;20214;-61
2023/06/27 02:10:07;;;;;;;6.53;3.33;;;16.00;99.90;;;;;;5049622;28;20703;-62
2023/06/27 02:12:33;;;;;;;6.97;3.20;;;16.00;99.90;;;;;;5048835;28;20208;-66
2023/06/27 02:14:58;;;;;;;7.73;3.57;;;16.00;99.90;;;;;;5049413;28;20667;-63
2023/06/27 02:17:24;;;;;;;12.30;3.47;;;16.00;99.90;;;;;;5048661;28;20199;-61
2023/06/27 02:19:49;;;;;;;10.73;3.47;;;16.00;99.90;;;;;;5048535;28;20604;-61
2023/06/27 02:22:15;;;;;;;9.80;3.77;;;16.00;99.90;;;;;;5048743;28;20260;-61
2023/06/27 02:24:40;;;;;;;9.43;3.53;;;16.00;99.90;;;;;;5047347;28;20268;-61
2023/06/27 02:27:06;;;;;;;7.60;3.90;;;15.90;99.90;;;;;;5049467;28;20230;-62
2023/06/27 02:29:31;;;;;;;8.50;3.77;;;15.90;99.90;;;;;;5048320;28;20861;-61
2023/06/27 02:31:57;;;;;;;7.73;3.33;;;15.90;99.90;;;;;;5051186;28;20764;-61
2023/06/27 02:34:22;;;;;;;5.77;3.50;;;15.90;99.90;;;;;;5048520;28;20202;-62
2023/06/27 02:36:48;;;;;;;12.57;3.57;;;15.90;99.90;;;;;;5059760;28;20194;-62
2023/06/27 02:39:13;;;;;;;10.27;3.80;;;15.90;99.90;;;;;;5056479;28;20265;-62
2023/06/27 02:41:39;;;;;;;8.27;3.63;;;15.90;99.90;;;;;;5050310;28;20202;-61
2023/06/27 02:44:04;;;;;;;7.43;3.43;;;15.90;99.90;;;;;;5058660;28;20200;-62
2023/06/27 02:46:30;;;;;;;8.87;3.93;;;15.90;99.90;;;;;;5058716;28;20198;-62
2023/06/27 02:48:55;;;;;;;10.17;3.63;;;15.90;99.90;;;;;;5058024;28;20214;-61
2023/06/27 02:51:21;;;;;;;5.50;3.50;;;15.80;99.90;;;;;;5055652;28;20198;-62
2023/06/27 02:53:47;;;;;;;9.07;4.37;;;15.70;99.90;;;;;;5058682;28;20218;-61
2023/06/27 02:56:12;;;;;;;8.90;4.03;;;15.70;99.90;;;;;;5058485;28;20198;-61
2023/06/27 02:58:39;;;;;;;8.50;3.87;;;15.70;99.90;;;;;;5058434;28;20233;-61
2023/06/27 03:01:06;;;;;;;5.30;3.33;;;15.60;99.90;;;;;;5058227;28;20255;-62
2023/06/27 03:03:32;;;;;;;8.13;4.20;;;15.70;99.90;;;;;;5056166;28;20567;-61
2023/06/27 03:06:02;;;;;;;5.53;3.67;;;15.60;99.90;;;;;;5058362;28;20912;-61
2023/06/27 03:08:28;;;;;;;5.43;3.43;;;15.60;99.90;;;;;;5058483;28;20739;-60
2023/06/27 03:10:54;;;;;;;9.63;3.70;;;15.50;99.90;;;;;;5058187;28;20197;-61
2023/06/27 03:13:20;;;;;;;10.37;4.10;;;15.50;99.90;;;;;;5057545;28;20210;-61
2023/06/27 03:15:45;;;;;;;7.20;3.67;;;15.50;99.90;;;;;;5056572;28;20190;-61
2023/06/27 03:18:10;;;;;;;6.03;4.20;;;15.50;99.90;;;;;;5066841;28;20211;-60
2023/06/27 03:20:36;;;;;;;11.17;4.20;;;15.50;99.90;;;;;;5066212;28;20675;-63
2023/06/27 03:23:01;;;;;;;7.20;3.73;;;15.40;99.90;;;;;;5067348;28;20195;-60
2023/06/27 03:25:27;;;;;;;7.03;3.47;;;15.50;99.90;;;;;;5067003;28;20201;-63
2023/06/27 03:27:52;;;;;;;7.73;3.33;;;15.40;99.90;;;;;;5066712;28;20193;-63
2023/06/27 03:30:18;;;;;;;6.47;4.27;;;15.40;99.90;;;;;;5067292;28;20692;-61
2023/06/27 03:32:43;;;;;;;8.80;4.07;;;15.40;99.90;;;;;;5056392;28;20211;-61
2023/06/27 03:35:09;;;;;;;8.23;3.30;;;15.40;99.90;;;;;;5051885;28;20205;-61
2023/06/27 03:37:35;;;;;;;7.40;3.40;;;15.40;99.90;;;;;;5061997;28;20197;-61
2023/06/27 03:40:01;;;;;;;9.63;4.37;;;15.30;99.90;;;;;;5065043;28;20314;-60
2023/06/27 03:42:27;;;;;;;9.30;4.37;;;15.40;99.90;;;;;;5062728;28;20294;-61
2023/06/27 03:44:52;;;;;;;6.17;3.97;;;15.30;99.90;;;;;;5063619;28;20280;-64
2023/06/27 03:47:18;;;;;;;15.60;4.77;;;15.30;99.90;;;;;;5060717;28;20619;-70
2023/06/27 03:49:43;;;;;;;8.47;3.97;;;15.30;99.90;;;;;;5057670;28;20222;-70
2023/06/27 03:52:10;;;;;;;13.87;4.23;;;15.40;99.90;;;;;;5055476;28;20198;-70
2023/06/27 03:54:35;;;;;;;8.47;3.87;;;15.60;99.90;;;;;;5048093;28;20660;-68
2023/06/27 03:57:01;;;;;;;12.03;4.10;;;15.60;99.90;;;;;;5057209;28;20198;-69
2023/06/27 03:59:26;;;;;;;8.73;3.70;;;15.60;99.90;;;;;;5062633;28;20201;-71
2023/06/27 04:01:52;;;;;;;5.50;3.47;;;15.60;99.90;;;;;;5064843;28;20248;-71
2023/06/27 04:04:17;;;;;;;7.93;3.37;;;15.60;99.90;;;;;;5057984;28;20277;-74
2023/06/27 04:06:43;;;;;;;9.70;3.93;;;15.60;99.90;;;;;;5052054;28;20194;-75
2023/06/27 04:09:08;;;;;;;10.53;3.97;;;15.60;99.90;;;;;;5056862;28;20301;-76
2023/06/27 04:11:34;;;;;;;15.23;4.80;;;15.50;99.90;;;;;;5061823;28;20682;-71
2023/06/27 04:13:59;;;;;;;9.90;3.37;;;15.40;99.90;;;;;;5057944;28;20696;-74
2023/06/27 04:16:26;;;;;;;8.13;4.10;;;15.40;99.90;;;;;;5057596;28;20195;-74
2023/06/27 04:18:52;;;;;;;6.13;3.57;;;15.50;99.90;;;;;;5058883;28;20231;-71
2023/06/27 04:21:18;;;;;;;15.80;4.83;;;15.50;99.90;;;;;;5057100;28;20207;-70
2023/06/27 04:23:43;;;;;;;10.10;4.47;;;15.50;99.90;;;;;;5064805;28;20205;-70
2023/06/27 04:26:14;;;;;;;14.97;4.50;;;15.50;99.90;;;;;;5055654;28;20210;-67
2023/06/27 04:28:49;;;;;;;11.30;4.17;;;15.50;99.90;;;;;;5054931;28;20221;-67
2023/06/27 04:31:15;;;;;;;11.70;4.07;;;15.70;99.90;;;;;;5056778;28;20224;-67
2023/06/27 04:33:41;;;;;;;9.40;3.43;;;15.70;99.90;;;;;;5056900;28;20190;-72
2023/06/27 04:36:07;;;;;;;6.37;3.17;;;15.70;99.90;;;;;;5057283;28;20629;-76
2023/06/27 04:38:37;;;;;;;17.80;3.73;;;15.70;99.90;;;;;;5055459;28;20263;-73
2023/06/27 04:41:12;;;;;;;9.67;4.60;;;15.60;99.90;;;;;;5056992;28;20198;-69
2023/06/27 04:43:40;;;;;;;9.40;3.57;;;15.70;99.90;;;;;;5056339;28;20276;-71
2023/06/27 04:46:06;;;;;;;5.97;3.37;;;15.70;99.90;;;;;;5054801;28;20823;-71
2023/06/27 04:48:32;;;;;;;14.10;4.07;;;15.70;99.90;;;;;;5052222;28;20218;-69
2023/06/27 04:50:57;;;;;;;13.53;3.60;;;15.60;99.90;;;;;;5066114;28;20696;-71
2023/06/27 04:53:23;;;;;;;11.83;3.70;;;15.60;99.90;;;;;;5067378;28;20199;-71
2023/06/27 04:55:50;;;;;;;10.70;4.10;;;15.60;99.90;;;;;;5046000;28;20190;-69
2023/06/27 04:58:16;;;;;;;5.70;3.27;;;15.60;99.90;;;;;;5043783;28;20198;-69
2023/06/27 05:00:44;;;;;;;7.50;4.53;;;15.50;99.90;;;;;;5047335;28;20190;-71
2023/06/27 05:03:09;;;;;;;10.00;4.17;;;15.60;99.90;;;;;;5044379;28;20277;-73
2023/06/27 05:05:35;;;;;;;9.67;5.57;;;15.50;99.90;;;;;;5058500;28;20607;-73
2023/06/27 05:08:01;;;;;;;10.50;5.07;;;15.50;99.90;;;;;;5064075;28;20202;-71
2023/06/27 05:10:27;;;;;;;9.30;4.20;;;15.50;99.90;;;;;;5061900;28;20263;-71
2023/06/27 05:12:53;;;;;;;8.87;3.70;;;15.60;99.90;;;;;;5045748;28;20539;-71
2023/06/27 05:15:18;;;;;;;9.30;4.63;;;15.60;99.90;;;;;;5045673;28;20709;-71
2023/06/27 05:17:51;;;;;;;10.53;4.03;;;15.70;99.90;;;;;;5048874;28;20241;-72
2023/06/27 05:20:17;;;;;;;10.37;3.83;;;15.80;99.90;;;;;;5043303;28;20281;-71
2023/06/27 05:22:43;;;;;;;8.10;4.27;;;15.80;99.90;;;;;;5045078;28;20274;-74
2023/06/27 05:25:08;;;;;;;8.47;3.77;;;15.80;99.90;;;;;;5044790;28;20202;-71
2023/06/27 05:27:34;;;;;;;5.30;3.20;;;15.90;99.90;;;;;;5043174;28;20749;-73
2023/06/27 05:29:59;;;;;;;5.73;3.50;;;16.00;99.90;;;;;;5044705;28;20514;-72
2023/06/27 05:32:25;;;;;;;9.80;3.20;;;16.00;99.90;;;;;;5043498;28;20669;-72
2023/06/27 05:34:50;;;;;;;10.53;3.63;;;15.90;99.90;;;;;;5042968;28;20195;-72
2023/06/27 05:37:16;;;;;;;9.80;3.77;;;16.00;99.90;;;;;;5047187;28;20233;-70
2023/06/27 05:39:41;;;;;;;9.07;3.47;;;16.10;99.90;;;;;;5048103;28;20627;-66
2023/06/27 05:42:07;;;;;;;14.17;3.90;;;16.10;99.90;;;;;;5048364;28;20842;-70
2023/06/27 05:44:33;;;;;;;4.87;2.90;;;16.00;99.90;;;;;;5054064;28;20198;-71
2023/06/27 05:46:59;;;;;;;11.17;4.20;;;16.00;99.90;;;;;;5066991;28;20576;-71
2023/06/27 05:49:25;;;;;;;11.10;3.83;;;16.00;99.90;;;;;;5064430;28;20281;-69
2023/06/27 05:51:50;;;;;;;13.20;3.43;;;16.00;99.90;;;;;;5067823;28;20257;-70
2023/06/27 05:54:16;;;;;;;14.67;4.33;;;16.00;99.90;;;;;;5067463;28;20186;-66
2023/06/27 05:56:41;;;;;;;10.40;3.73;;;16.10;99.90;;;;;;5068558;28;20220;-68
2023/06/27 05:59:07;;;;;;;10.30;4.20;;;16.20;99.90;;;;;;5069025;28;20204;-68
2023/06/27 06:01:34;;;;;;;8.67;3.37;;;16.20;99.90;;;;;;5068336;28;20194;-67
2023/06/27 06:04:00;;;;;;;8.87;3.73;;;16.20;99.90;;;;;;5068950;28;20203;-66
2023/06/27 06:06:25;;;;;;;19.20;5.70;;;16.20;99.90;;;;;;5061385;28;21004;-66
2023/06/27 06:08:51;;;;;;;9.83;3.43;;;16.30;99.90;;;;;;5068988;28;20233;-68
2023/06/27 06:11:16;;;;;;;4.93;3.10;;;16.30;99.90;;;;;;5060330;28;20190;-69
2023/06/27 06:13:42;;;;;;;7.33;3.20;;;16.50;99.90;;;;;;5059477;28;20194;-69
2023/06/27 06:16:08;;;;;;;10.23;4.37;;;16.50;99.90;;;;;;5064132;28;20288;-70
2023/06/27 06:18:33;;;;;;;7.33;2.90;;;16.60;99.90;;;;;;5068325;28;20332;-70
2023/06/27 06:20:59;;;;;;;7.17;2.97;;;16.70;99.90;;;;;;5067463;28;20199;-69
2023/06/27 06:23:24;;;;;;;6.17;3.10;;;16.70;99.90;;;;;;5068092;28;20205;-69
2023/06/27 06:25:50;;;;;;;10.77;2.73;;;16.70;99.90;;;;;;5057646;28;20214;-69
2023/06/27 06:28:15;;;;;;;6.17;2.87;;;16.60;99.90;;;;;;5060617;28;20202;-69
2023/06/27 06:30:40;;;;;;;7.90;2.97;;;16.70;99.90;;;;;;5064432;28;20197;-69
2023/06/27 06:33:06;;;;;;;8.97;3.23;;;16.80;99.90;;;;;;5059569;28;20202;-69
2023/06/27 06:35:32;;;;;;;8.20;3.57;;;16.80;99.90;;;;;;5069010;28;20226;-69
2023/06/27 06:37:57;;;;;;;7.40;2.60;;;17.00;99.90;;;;;;5059014;28;20197;-69
2023/06/27 06:40:24;;;;;;;7.60;3.13;;;17.00;99.90;;;;;;5058875;28;20253;-69
2023/06/27 06:42:50;;;;;;;6.50;3.00;;;17.00;99.90;;;;;;5058383;28;20206;-69
2023/06/27 06:45:16;;;;;;;8.00;3.07;;;17.00;99.90;;;;;;5058891;28;20794;-69
2023/06/27 06:47:41;;;;;;;8.87;2.83;;;17.00;99.90;;;;;;5058103;28;20225;-69
2023/06/27 06:50:07;;;;;;;6.27;2.77;;;17.20;99.90;;;;;;5058114;28;20680;-69
2023/06/27 06:52:33;;;;;;;7.87;3.33;;;17.20;99.90;;;;;;5058073;28;20204;-68
2023/06/27 06:54:58;;;;;;;8.77;2.67;;;17.20;99.90;;;;;;5058812;28;20226;-68
2023/06/27 06:57:24;;;;;;;5.50;2.33;;;17.10;99.90;;;;;;5058435;28;20210;-68
2023/06/27 06:59:49;;;;;;;5.83;2.40;;;17.00;99.90;;;;;;5059212;28;20198;-68
2023/06/27 07:02:15;;;;;;;12.93;2.40;;;17.00;99.90;;;;;;5058352;28;20198;-68
2023/06/27 07:04:40;;;;;;;7.80;2.37;;;17.00;99.90;;;;;;5056795;28;20668;-69
2023/06/27 07:07:06;;;;;;;8.60;2.53;;;17.10;99.90;;;;;;5058424;28;20251;-69
2023/06/27 07:09:31;;;;;;;3.80;1.77;;;17.20;99.90;;;;;;5058185;28;20691;-68
2023/06/27 07:11:57;;;;;;;6.87;2.23;;;17.10;99.90;;;;;;5058365;28;20192;-68
2023/06/27 07:14:23;;;;;;;9.40;2.67;;;17.20;99.90;;;;;;5058136;28;20213;-68
2023/06/27 07:16:48;;;;;;;7.47;2.50;;;17.50;99.90;;;;;;5058506;28;20300;-68
2023/06/27 07:19:13;;;;;;;2.43;2.23;;;17.70;99.90;;;;;;5056027;28;20300;-68
2023/06/27 07:21:39;;;;;;;8.23;3.13;;;17.80;99.90;;;;;;5057862;28;20217;-68
2023/06/27 07:24:06;;;;;;;5.23;2.03;;;17.70;99.90;;;;;;5057920;28;20207;-68
2023/06/27 07:26:31;;;;;;;6.00;2.87;;;17.50;99.90;;;;;;5057900;28;20801;-68
2023/06/27 07:28:57;;;;;;;4.73;1.50;;;17.50;99.90;;;;;;5057599;28;20206;-68
2023/06/27 07:31:22;;;;;;;5.03;1.70;;;17.40;99.90;;;;;;5057495;28;20209;-68
2023/06/27 07:33:48;;;;;;;11.90;2.67;;;17.50;99.90;;;;;;5057153;28;20194;-69
2023/06/27 07:36:14;;;;;;;2.93;1.73;;;17.70;99.90;;;;;;5057696;28;20198;-69
2023/06/27 07:38:39;;;;;;;10.73;2.17;;;17.90;99.90;;;;;;5056737;28;20198;-69
2023/06/27 07:41:05;;;;;;;4.97;1.97;;;18.00;99.90;;;;;;5057299;28;20528;-69
2023/06/27 07:43:30;;;;;;;2.70;1.50;;;17.90;99.90;;;;;;5057617;28;20661;-69
2023/06/27 07:45:56;;;;;;;6.30;2.13;;;17.80;99.90;;;;;;5055825;28;20202;-69
2023/06/27 07:48:21;;;;;;;3.23;1.87;;;17.60;99.90;;;;;;5052715;28;20209;-69
2023/06/27 07:50:47;;;;;;;8.23;1.80;;;17.60;99.90;;;;;;5057223;28;20696;-66
2023/06/27 07:53:12;;;;;;;6.83;1.70;;;17.80;99.90;;;;;;5057475;28;20289;-67
2023/06/27 07:55:38;;;;;;;6.10;1.77;;;17.90;99.90;;;;;;5057877;28;20255;-69
2023/06/27 07:58:03;;;;;;;4.23;1.70;;;18.00;99.90;;;;;;5056144;28;20275;-69
2023/06/27 08:00:29;;;;;;;8.97;2.13;;;17.90;99.90;;;;;;5058340;28;20250;-68
2023/06/27 08:02:54;;;;;;;2.90;1.60;;;18.00;99.90;;;;;;5057625;28;20284;-70
2023/06/27 08:05:20;;;;;;;5.57;2.20;;;18.10;99.90;;;;;;5057267;28;20206;-69
2023/06/27 08:07:45;;;;;;;4.13;1.73;;;18.20;99.90;;;;;;5057255;28;20207;-68
2023/06/27 08:10:11;;;;;;;6.20;1.73;;;18.20;99.90;;;;;;5057059;28;20802;-69
2023/06/27 08:12:37;;;;;;;7.50;1.93;;;18.20;99.90;;;;;;5055354;28;20715;-69
2023/06/27 08:15:04;;;;;;;4.07;1.70;;;18.30;99.90;;;;;;5057049;28;20226;-69
2023/06/27 08:17:29;;;;;;;4.20;1.50;;;18.30;99.90;;;;;;5057108;28;20687;-69
2023/06/27 08:19:54;;;;;;;2.67;1.17;;;18.40;99.90;;;;;;5057200;28;20206;-69
2023/06/27 08:22:20;;;;;;;3.77;1.40;;;18.60;99.90;;;;;;5057194;28;20863;-69
2023/06/27 08:24:45;;;;;;;3.37;1.57;;;18.60;99.90;;;;;;5057463;28;20194;-69
2023/06/27 08:27:11;;;;;;;5.13;2.10;;;18.70;99.90;;;;;;5055364;28;20202;-69
2023/06/27 08:29:36;;;;;;;1.73;1.47;;;18.70;99.90;;;;;;5056519;28;20248;-70
2023/06/27 08:32:02;;;;;;;6.47;2.13;;;18.50;99.90;;;;;;5057754;28;20214;-70
2023/06/27 08:34:31;;;;;;;4.77;2.07;;;18.50;99.90;;;;;;5055224;28;20817;-69
2023/06/27 08:36:57;;;;;;;6.93;1.90;;;18.60;99.90;;;;;;5057294;28;20688;-70
2023/06/27 08:39:23;;;;;;;5.03;1.73;;;18.60;99.90;;;;;;5054593;28;20253;-70
2023/06/27 08:41:48;;;;;;;6.47;1.77;;;18.70;99.90;;;;;;5043166;28;20197;-69
2023/06/27 08:44:14;;;;;;;5.83;1.70;;;18.60;99.90;;;;;;5047381;28;20206;-69
2023/06/27 08:46:42;;;;;;;3.73;1.40;;;18.60;99.90;;;;;;5047484;28;20285;-69
2023/06/27 08:49:11;;;;;;;3.37;1.23;;;18.60;99.90;;;;;;5048031;28;20240;-69
2023/06/27 08:51:39;;;;;;;5.33;1.60;;;18.60;99.90;;;;;;5044967;28;20249;-69
2023/06/27 08:54:12;;;;;;;3.10;1.70;;;18.50;99.90;;;;;;5046793;28;20672;-69
2023/06/27 08:56:38;;;;;;;4.90;1.10;;;18.40;99.90;;;;;;5046827;28;20211;-68
2023/06/27 08:59:10;;;;;;;4.30;1.63;;;18.50;99.90;;;;;;5045164;28;20219;-69
2023/06/27 09:01:37;;;;;;;3.53;2.13;;;18.80;99.90;;;;;;5047070;28;20206;-67
2023/06/27 09:04:03;;;;;;;7.20;1.50;;;19.00;99.90;;;;;;5047514;28;20678;-67
2023/06/27 09:06:29;;;;;;;3.80;1.93;;;19.20;99.90;;;;;;5045943;28;20206;-67
2023/06/27 09:08:54;;;;;;;4.07;1.93;;;19.00;99.90;;;;;;5049583;28;20206;-69
2023/06/27 09:11:24;;;;;;;5.53;2.43;;;19.00;99.90;;;;;;5045971;28;20207;-69
2023/06/27 09:13:49;;;;;;;5.50;1.27;;;18.70;99.90;;;;;;5054157;28;20255;-72
2023/06/27 09:16:15;;;;;;;3.13;1.40;;;17.00;99.90;;;;;;5064155;28;20672;-69
2023/06/27 09:18:40;;;;;;;4.67;1.40;;;15.70;99.90;;;;;;5049483;28;20689;-70
2023/06/27 09:21:06;;;;;;;4.23;1.70;;;15.20;99.90;;;;;;5049730;28;20209;-69
2023/06/27 09:23:32;;;;;;;2.47;1.63;;;15.10;99.90;;;;;;5049682;28;20211;-71
2023/06/27 09:26:13;;;;;;;4.40;1.80;;;15.00;99.90;;;;;;5052744;28;20208;-69
2023/06/27 09:28:52;;;;;;;2.23;1.70;;;15.00;99.90;;;;;;5050774;28;20202;-68
2023/06/27 09:31:20;;;;;;;3.33;1.60;;;14.90;99.90;;;;;;5048285;28;20202;-70
2023/06/27 09:33:47;;;;;;;5.27;2.03;;;15.00;99.90;;;;;;5049689;28;20198;-69
2023/06/27 09:36:36;;;;;;;4.50;2.27;;;15.20;99.90;;;;;;5049643;28;20203;-69
2023/06/27 09:39:03;;;;;;;3.13;2.03;;;15.30;99.90;;;;;;5047676;28;20317;-69
2023/06/27 09:41:44;;;;;;;4.70;1.97;;;15.40;99.90;;;;;;5050550;28;20206;-71
2023/06/27 09:44:17;;;;;;;4.63;1.90;;;15.80;99.90;;;;;;5049479;28;20574;-70
2023/06/27 09:46:44;;;;;;;6.10;2.47;;;16.00;99.90;;;;;;5049605;28;20868;-70
2023/06/27 09:49:10;;;;;;;3.73;2.03;;;16.20;99.90;;;;;;5047558;28;20709;-69
2023/06/27 09:51:37;;;;;;;5.17;2.37;;;16.40;99.90;;;;;;5050525;28;20198;-69
2023/06/27 09:54:03;;;;;;;4.57;2.23;;;16.70;99.90;;;;;;5050588;28;20907;-68
2023/06/27 09:56:33;;;;;;;6.00;2.80;;;16.80;99.90;;;;;;5050253;28;20233;-68
2023/06/27 09:59:11;;;;;;;5.33;2.13;;;17.10;99.90;;;;;;5050623;28;20331;-69
2023/06/27 10:01:38;;;;;;;5.67;2.03;;;17.30;99.90;;;;;;5049837;28;20312;-69
2023/06/27 10:04:05;;;;;;;2.90;1.90;;;17.60;99.90;;;;;;5049730;28;20223;-69
2023/06/27 10:06:31;;;;;;;5.50;1.67;;;17.80;99.90;;;;;;5054881;28;20207;-67
2023/06/27 10:08:57;;;;;;;4.93;1.53;;;18.10;99.90;;;;;;5055720;28;20750;-66
2023/06/27 10:11:23;;;;;;;2.97;1.50;;;18.30;99.90;;;;;;5064942;28;20190;-72
2023/06/27 10:13:50;;;;;;;2.07;0.90;;;18.40;99.90;;;;;;5064690;28;20198;-68
2023/06/27 10:16:17;;;;;;;3.83;1.57;;;18.40;99.90;;;;;;5061958;28;20202;-78
2023/06/27 10:18:43;;;;;;;2.63;1.80;;;18.40;99.90;;;;;;5050585;28;20253;-68
2023/06/27 10:21:09;;;;;;;3.43;1.20;;;18.50;99.90;;;;;;5046263;28;20203;-69
2023/06/27 10:23:37;;;;;;;2.90;1.47;;;18.50;99.90;;;;;;5049082;28;20270;-69
2023/06/27 10:26:03;;;;;;;2.33;1.47;;;18.60;99.90;;;;;;5049216;28;20254;-69
2023/06/27 10:28:32;;;;;;;3.17;1.27;;;18.70;99.90;;;;;;5047927;28;20202;-72
2023/06/27 10:30:58;;;;;;;2.37;1.27;;;18.60;99.90;;;;;;5048624;28;20196;-70
2023/06/27 10:33:29;;;;;;;4.63;1.73;;;18.60;99.90;;;;;;5048605;28;20205;-74
2023/06/27 10:36:03;;;;;;;1.63;1.20;;;18.80;99.90;;;;;;5049137;28;20220;-75
2023/06/27 10:38:39;;;;;;;3.37;1.70;;;18.90;99.90;;;;;;5057646;28;20596;-74
2023/06/27 10:41:06;;;;;;;6.13;2.10;;;18.20;99.90;;;;;;5062244;28;20208;-66
2023/06/27 10:43:51;;;;;;;6.63;2.03;;;16.10;99.90;;;;;;5062418;28;20206;-66
2023/06/27 10:46:26;;;;;;;2.10;2.00;;;15.00;99.90;;;;;;5063117;28;20197;-67
2023/06/27 10:48:59;;;;;;;2.30;1.87;;;14.60;99.90;;;;;;5059103;28;20300;-65
2023/06/27 10:51:37;;;;;;;2.17;1.20;;;14.20;99.90;;;;;;5058900;28;20197;-67
2023/06/27 10:54:09;;;;;;;2.67;1.77;;;14.10;99.90;;;;;;5064291;28;20205;-66
2023/06/27 10:56:36;;;;;;;1.80;1.70;;;14.00;99.90;;;;;;5057394;28;20250;-67
2023/06/27 10:59:04;;;;;;;3.07;1.67;;;13.90;99.90;;;;;;5062372;28;20194;-65
2023/06/27 11:01:34;;;;;;;2.87;1.83;;;13.90;99.90;;;;;;5048627;28;20248;-67
2023/06/27 11:04:00;;;;;;;2.67;2.43;;;13.90;99.90;;;;;;5054848;28;20221;-78
2023/06/27 11:06:39;;;;;;;4.47;2.10;;;14.00;99.90;;;;;;5046898;28;20198;-67
2023/06/27 11:09:05;;;;;;;2.40;2.20;;;14.30;99.90;;;;;;5047797;28;20217;-68
2023/06/27 11:11:31;;;;;;;3.47;2.77;;;14.70;99.90;;;;;;5046472;28;20225;-69
2023/06/27 11:14:05;;;;;;;2.03;1.90;;;15.20;99.90;;;;;;5047987;28;20202;-68
2023/06/27 11:16:32;;;;;;;1.90;1.80;;;15.10;99.90;;;;;;5062638;28;20263;-65
2023/06/27 11:18:58;;;;;;;2.60;1.80;;;15.20;99.90;;;;;;5049432;28;20209;-68
2023/06/27 11:21:24;;;;;;;2.03;1.73;;;15.20;99.90;;;;;;5047935;28;20198;-65
2023/06/27 11:23:50;;;;;;;2.70;2.00;;;15.50;99.90;;;;;;5046194;28;20206;-67
2023/06/27 11:26:16;;;;;;;3.67;1.70;;;15.80;99.90;;;;;;5053908;28;20213;-66
2023/06/27 11:28:42;;;;;;;1.50;1.40;;;16.00;99.90;;;;;;5059466;28;20334;-68
2023/06/27 11:31:08;;;;;;;1.50;1.40;;;16.50;99.90;;;;;;5059818;28;20252;-68
2023/06/27 11:33:33;;;;;;;2.60;2.10;;;16.70;99.90;;;;;;5059416;28;20358;-70
2023/06/27 11:36:00;;;;;;;2.03;1.43;;;16.80;99.90;;;;;;5058676;28;20285;-67
2023/06/27 11:38:27;;;;;;;2.60;1.17;;;17.10;99.90;;;;;;5063302;28;20299;-67
2023/06/27 11:40:52;;;;;;;1.33;1.10;;;17.40;99.90;;;;;;5062041;28;20207;-69
2023/06/27 11:43:18;;;;;;;3.50;1.60;;;17.70;99.90;;;;;;5059658;28;20691;-67
2023/06/27 11:45:49;;;;;;;1.10;1.00;;;17.60;99.90;;;;;;5055844;28;20287;-67
2023/06/27 11:48:14;;;;;;;2.47;1.40;;;17.70;99.90;;;;;;5059806;28;20226;-67
2023/06/27 11:50:58;;;;;;;2.13;1.40;;;18.10;99.90;;;;;;5060256;28;21030;-66
2023/06/27 11:53:26;;;;;;;3.27;1.30;;;18.30;99.90;;;;;;5059489;28;20263;-69
2023/06/27 11:55:52;;;;;;;2.43;1.10;;;18.70;99.90;;;;;;5056433;28;20253;-69
2023/06/27 11:58:29;;;;;;;1.57;1.47;;;18.70;99.90;;;;;;5058689;28;20947;-67
2023/06/27 12:00:58;;;;;;;3.13;1.57;;;18.70;99.90;;;;;;5056284;28;20231;-69
2023/06/27 12:03:28;;;;;;;1.07;1.00;;;19.20;99.90;;;;;;5057817;28;20537;-70
2023/06/27 12:05:57;;;;;;;3.10;1.40;;;19.60;99.90;;;;;;5060626;28;20209;-68
2023/06/27 12:08:31;;;;;;;2.23;1.37;;;19.70;99.90;;;;;;5059562;28;20662;-68
2023/06/27 12:11:01;;;;;;;0.97;0.90;;;19.10;99.90;;;;;;5060968;28;20200;-68
2023/06/27 12:13:30;;;;;;;2.37;0.93;;;18.80;99.90;;;;;;5058236;28;20554;-68
2023/06/27 12:15:56;;;;;;;2.87;1.33;;;18.60;99.90;;;;;;5059542;28;20203;-69
2023/06/27 12:18:27;;;;;;;1.17;0.80;;;18.40;99.90;;;;;;5053456;28;20198;-70
2023/06/27 12:20:53;;;;;;;2.33;1.23;;;17.90;99.90;;;;;;5046509;28;20196;-68
2023/06/27 12:23:19;;;;;;;1.20;1.10;;;17.70;99.90;;;;;;5046980;28;20673;-67
2023/06/27 12:25:45;;;;;;;0.80;0.80;;;17.50;99.90;;;;;;5058854;28;20232;-70
2023/06/27 12:28:11;;;;;;;2.97;1.07;;;17.50;99.90;;;;;;5060708;28;20209;-69
2023/06/27 12:30:36;;;;;;;0.80;0.80;;;17.50;99.90;;;;;;5043573;28;20221;-67
2023/06/27 12:33:02;;;;;;;2.20;1.03;;;17.50;99.90;;;;;;5045075;28;20274;-68
2023/06/27 12:35:28;;;;;;;2.60;1.10;;;17.70;99.90;;;;;;5047974;28;20645;-68
2023/06/27 12:37:53;;;;;;;2.80;1.00;;;17.80;99.90;;;;;;5047124;28;20201;-69
2023/06/27 12:40:22;;;;;;;1.60;0.97;;;17.90;99.90;;;;;;5047289;28;20225;-67
2023/06/27 12:42:49;;;;;;;5.80;1.10;;;17.90;99.90;;;;;;5055781;28;20206;-68
2023/06/27 12:45:14;;;;;;;1.27;1.03;;;17.90;99.90;;;;;;5055939;28;20217;-69